createdAt,value
2022-08-26T00:01:54.569Z,18.90
2022-08-26T00:04:25.309Z,18.92
2022-08-26T00:06:56.747Z,18.85
2022-08-26T00:09:26.235Z,18.82
2022-08-26T00:11:54.534Z,18.84
2022-08-26T00:14:28.326Z,18.84
2022-08-26T00:17:01.032Z,18.82
2022-08-26T00:19:28.212Z,18.78
2022-08-26T00:21:55.117Z,18.76
2022-08-26T00:24:23.439Z,18.79
2022-08-26T00:26:51.560Z,18.78
2022-08-26T00:29:18.772Z,18.79
2022-08-26T00:31:45.796Z,18.80
2022-08-26T00:34:15.267Z,18.81
2022-08-26T00:36:42.473Z,18.80
2022-08-26T00:39:10.592Z,18.81
2022-08-26T00:41:41.391Z,18.83
2022-08-26T00:44:11.706Z,18.86
2022-08-26T00:46:52.993Z,18.89
2022-08-26T00:49:37.039Z,18.95
2022-08-26T00:52:12.084Z,18.98
2022-08-26T00:54:53.526Z,19.03
2022-08-26T00:57:23.560Z,19.05
2022-08-26T01:00:00.428Z,19.04
2022-08-26T01:02:28.879Z,19.05
2022-08-26T01:05:03.366Z,19.07
2022-08-26T01:07:34.742Z,19.05
2022-08-26T01:10:10.427Z,19.05
2022-08-26T01:12:52.299Z,19.06
2022-08-26T01:15:36.023Z,19.02
2022-08-26T01:18:06.039Z,19.00
2022-08-26T01:21:00.598Z,18.98
2022-08-26T01:23:38.218Z,18.95
2022-08-26T01:26:35.040Z,18.92
2022-08-26T01:29:06.473Z,18.88
2022-08-26T01:31:44.517Z,18.89
2022-08-26T01:34:23.909Z,18.87
2022-08-26T01:37:25.929Z,18.85
2022-08-26T01:39:56.574Z,18.84
2022-08-26T01:42:27.342Z,18.81
2022-08-26T01:45:14.823Z,18.81
2022-08-26T01:47:43.230Z,18.81
2022-08-26T01:50:28.103Z,18.80
2022-08-26T01:53:06.087Z,18.77
2022-08-26T01:55:37.367Z,18.74
2022-08-26T01:58:15.202Z,18.71
2022-08-26T02:00:42.237Z,18.70
2022-08-26T02:03:17.621Z,18.73
2022-08-26T02:06:09.185Z,18.71
2022-08-26T02:08:54.628Z,18.71
2022-08-26T02:11:21.564Z,18.70
2022-08-26T02:14:03.558Z,18.68
2022-08-26T02:16:39.636Z,18.68
2022-08-26T02:19:18.639Z,18.65
2022-08-26T02:21:51.260Z,18.64
2022-08-26T02:24:29.170Z,18.56
2022-08-26T02:26:58.827Z,18.56
2022-08-26T02:29:41.293Z,18.55
2022-08-26T02:32:10.212Z,18.56
2022-08-26T02:34:37.081Z,18.54
2022-08-26T02:37:10.434Z,18.48
2022-08-26T02:39:41.486Z,18.39
2022-08-26T02:42:09.414Z,18.27
2022-08-26T02:44:37.036Z,18.21
2022-08-26T02:47:06.647Z,18.22
2022-08-26T02:49:34.756Z,18.26
2022-08-26T02:52:01.888Z,18.31
2022-08-26T02:54:28.988Z,18.34
2022-08-26T02:56:56.288Z,18.36
2022-08-26T02:59:24.395Z,18.35
2022-08-26T03:01:52.413Z,18.34
2022-08-26T03:04:25.750Z,18.34
2022-08-26T03:06:58.789Z,18.35
2022-08-26T03:09:25.735Z,18.33
2022-08-26T03:11:55.261Z,18.31
2022-08-26T03:14:23.975Z,18.33
2022-08-26T03:16:54.432Z,18.31
2022-08-26T03:19:26.357Z,18.29
2022-08-26T03:21:57.905Z,18.29
2022-08-26T03:24:26.781Z,18.28
2022-08-26T03:26:53.497Z,18.31
2022-08-26T03:29:41.522Z,18.31
2022-08-26T03:32:09.380Z,18.30
2022-08-26T03:34:37.356Z,18.28
2022-08-26T03:37:05.699Z,18.26
2022-08-26T03:39:32.683Z,18.25
2022-08-26T03:42:00.308Z,18.21
2022-08-26T03:44:27.511Z,18.20
2022-08-26T03:46:54.579Z,18.21
2022-08-26T03:49:22.370Z,18.21
2022-08-26T03:51:49.092Z,18.21
2022-08-26T03:54:17.440Z,18.21
2022-08-26T03:56:46.558Z,18.20
2022-08-26T03:59:14.057Z,18.20
2022-08-26T04:01:41.873Z,18.21
2022-08-26T04:04:09.200Z,18.22
2022-08-26T04:06:43.428Z,18.23
2022-08-26T04:09:20.785Z,18.23
2022-08-26T04:11:50.497Z,18.24
2022-08-26T04:14:23.609Z,18.21
2022-08-26T04:16:53.550Z,18.22
2022-08-26T04:19:24.865Z,18.22
2022-08-26T04:21:55.984Z,18.20
2022-08-26T04:24:27.870Z,18.15
2022-08-26T04:26:56.323Z,18.14
2022-08-26T04:29:26.782Z,18.14
2022-08-26T04:31:56.728Z,18.17
2022-08-26T04:34:28.976Z,18.18
2022-08-26T04:36:57.918Z,18.19
2022-08-26T04:39:25.452Z,18.21
2022-08-26T04:41:55.546Z,18.21
2022-08-26T04:44:28.773Z,18.23
2022-08-26T04:46:57.255Z,18.24
2022-08-26T04:49:26.073Z,18.27
2022-08-26T04:51:54.845Z,18.26
2022-08-26T04:54:21.632Z,18.30
2022-08-26T04:56:49.541Z,18.35
2022-08-26T04:59:18.405Z,18.39
2022-08-26T05:01:57.362Z,18.42
2022-08-26T05:04:24.164Z,18.50
2022-08-26T05:06:54.047Z,18.54
2022-08-26T05:09:23.660Z,18.59
2022-08-26T05:11:52.507Z,18.59
2022-08-26T05:14:23.050Z,18.60
2022-08-26T05:16:50.199Z,18.63
2022-08-26T05:19:19.161Z,18.64
2022-08-26T05:21:48.663Z,18.73
2022-08-26T05:24:17.885Z,18.80
2022-08-26T05:26:46.734Z,18.88
2022-08-26T05:29:14.080Z,18.92
2022-08-26T05:31:41.265Z,19.00
2022-08-26T05:34:08.485Z,19.03
2022-08-26T05:36:36.949Z,19.08
2022-08-26T05:39:06.717Z,19.05
2022-08-26T05:41:41.003Z,19.06
2022-08-26T05:44:15.772Z,19.18
2022-08-26T05:46:44.714Z,19.26
2022-08-26T05:49:16.051Z,19.24
2022-08-26T05:51:47.713Z,19.21
2022-08-26T05:54:21.758Z,19.34
2022-08-26T05:56:52.968Z,19.45
2022-08-26T05:59:21.368Z,19.47
2022-08-26T06:01:54.566Z,19.44
2022-08-26T06:04:24.986Z,19.50
2022-08-26T06:06:55.216Z,19.50
2022-08-26T06:09:22.172Z,19.51
2022-08-26T06:11:50.580Z,19.61
2022-08-26T06:14:17.834Z,19.75
2022-08-26T06:16:45.477Z,19.72
2022-08-26T06:19:15.614Z,19.87
2022-08-26T06:21:54.237Z,19.84
2022-08-26T06:24:41.320Z,19.96
2022-08-26T06:27:13.360Z,20.11
2022-08-26T06:29:40.046Z,19.87
2022-08-26T06:32:07.110Z,19.91
2022-08-26T06:34:35.647Z,20.00
2022-08-26T06:37:03.508Z,20.13
2022-08-26T06:39:31.700Z,20.14
2022-08-26T06:42:00.742Z,20.35
2022-08-26T06:44:29.945Z,20.48
2022-08-26T06:46:56.716Z,20.51
2022-08-26T06:49:26.940Z,20.43
2022-08-26T06:52:01.767Z,20.48
2022-08-26T06:54:32.079Z,20.66
2022-08-26T06:56:59.440Z,20.84
2022-08-26T06:59:26.871Z,20.99
2022-08-26T07:01:55.044Z,20.91
2022-08-26T07:04:24.525Z,20.97
2022-08-26T07:06:53.838Z,20.98
2022-08-26T07:09:27.238Z,21.05
2022-08-26T07:11:59.012Z,21.23
2022-08-26T07:14:26.573Z,21.40
2022-08-26T07:16:54.310Z,21.38
2022-08-26T07:19:30.087Z,21.45
2022-08-26T07:22:04.828Z,21.18
2022-08-26T07:24:37.870Z,21.33
2022-08-26T07:27:11.917Z,21.42
2022-08-26T07:29:42.284Z,21.48
2022-08-26T07:32:13.752Z,21.70
2022-08-26T07:34:42.813Z,21.66
2022-08-26T07:37:10.956Z,21.84
2022-08-26T07:39:38.589Z,21.78
2022-08-26T07:42:10.655Z,21.95
2022-08-26T07:44:39.643Z,21.81
2022-08-26T07:47:10.517Z,21.86
2022-08-26T07:49:57.520Z,21.81
2022-08-26T07:52:29.997Z,22.19
2022-08-26T07:55:01.818Z,22.10
2022-08-26T07:57:30.343Z,22.36
2022-08-26T07:59:57.538Z,22.68
2022-08-26T08:02:26.153Z,22.95
2022-08-26T08:04:54.496Z,23.22
2022-08-26T08:07:38.480Z,23.21
2022-08-26T08:10:11.612Z,23.38
2022-08-26T08:12:40.248Z,23.80
2022-08-26T08:15:13.252Z,24.12
2022-08-26T08:17:43.974Z,24.17
2022-08-26T08:20:13.000Z,24.32
2022-08-26T08:22:41.064Z,24.75
2022-08-26T08:25:08.305Z,25.31
2022-08-26T08:27:40.246Z,25.70
2022-08-26T08:30:10.772Z,25.78
2022-08-26T08:32:41.161Z,25.63
2022-08-26T08:35:11.528Z,25.70
2022-08-26T08:37:38.472Z,25.64
2022-08-26T08:40:08.482Z,26.05
2022-08-26T08:43:09.784Z,26.31
2022-08-26T08:45:49.675Z,26.38
2022-08-26T08:48:31.732Z,26.60
2022-08-26T08:51:27.637Z,26.47
2022-08-26T08:53:56.863Z,26.03
2022-08-26T08:56:54.948Z,26.09
2022-08-26T08:59:32.716Z,25.81
2022-08-26T09:02:54.584Z,26.23
2022-08-26T09:05:36.384Z,26.66
2022-08-26T09:08:16.167Z,26.95
2022-08-26T09:10:57.385Z,27.00
2022-08-26T09:13:27.194Z,26.93
2022-08-26T09:16:13.803Z,25.77
2022-08-26T09:19:02.768Z,26.91
2022-08-26T09:21:32.010Z,27.32
2022-08-26T09:23:59.829Z,27.54
2022-08-26T09:26:41.854Z,27.53
2022-08-26T09:29:26.327Z,27.60
2022-08-26T09:32:22.025Z,27.19
2022-08-26T09:35:07.412Z,27.40
2022-08-26T09:40:35.882Z,27.24
2022-08-26T09:43:22.006Z,27.51
2022-08-26T09:45:59.729Z,27.12
2022-08-26T09:48:35.476Z,27.30
2022-08-26T09:51:32.057Z,27.41
2022-08-26T09:54:03.881Z,27.77
2022-08-26T09:56:39.382Z,27.84
2022-08-26T09:59:11.981Z,28.07
2022-08-26T10:01:44.949Z,27.17
2022-08-26T10:04:30.005Z,27.85
2022-08-26T10:07:07.289Z,27.39
2022-08-26T10:09:44.446Z,27.45
2022-08-26T10:12:21.446Z,28.07
2022-08-26T10:15:09.749Z,26.77
2022-08-26T10:18:09.804Z,27.38
2022-08-26T10:20:55.045Z,28.17
2022-08-26T10:23:29.211Z,28.91
2022-08-26T10:26:13.747Z,29.25
2022-08-26T10:29:06.784Z,28.96
2022-08-26T10:31:53.751Z,28.58
2022-08-26T10:34:25.863Z,29.22
2022-08-26T10:37:23.867Z,29.73
2022-08-26T10:40:14.202Z,30.00
2022-08-26T10:42:53.251Z,29.45
2022-08-26T10:45:27.652Z,28.89
2022-08-26T10:48:01.605Z,29.62
2022-08-26T10:50:37.455Z,29.40
2022-08-26T10:53:34.405Z,29.64
2022-08-26T10:56:18.895Z,29.40
2022-08-26T10:59:24.211Z,28.80
2022-08-26T11:02:31.915Z,29.26
2022-08-26T11:05:06.482Z,29.29
2022-08-26T11:07:44.267Z,28.01
2022-08-26T11:10:43.406Z,28.56
2022-08-26T11:13:11.913Z,28.96
2022-08-26T11:15:38.537Z,28.14
2022-08-26T11:18:29.264Z,28.60
2022-08-26T11:20:56.090Z,28.80
2022-08-26T11:23:22.868Z,28.54
2022-08-26T11:25:57.134Z,28.59
2022-08-26T11:28:50.030Z,28.80
2022-08-26T11:31:30.284Z,28.96
2022-08-26T11:34:07.070Z,28.98
2022-08-26T11:36:45.605Z,28.86
2022-08-26T11:39:54.465Z,28.60
2022-08-26T11:42:51.661Z,28.35
2022-08-26T11:45:34.883Z,28.44
2022-08-26T11:48:35.003Z,27.68
2022-08-26T11:51:24.597Z,28.40
2022-08-26T11:54:07.504Z,29.13
2022-08-26T11:56:36.717Z,29.40
2022-08-26T11:59:15.538Z,29.53
2022-08-26T12:01:50.336Z,29.45
2022-08-26T12:04:37.646Z,29.37
2022-08-26T12:07:08.737Z,29.23
2022-08-26T12:10:00.755Z,29.36
2022-08-26T12:12:42.455Z,29.19
2022-08-26T12:15:30.109Z,28.94
2022-08-26T12:18:00.305Z,28.95
2022-08-26T12:20:51.377Z,29.22
2022-08-26T12:23:49.966Z,28.63
2022-08-26T12:26:32.339Z,28.64
2022-08-26T12:29:27.025Z,28.88
2022-08-26T12:32:18.347Z,28.73
2022-08-26T12:34:51.550Z,29.09
2022-08-26T12:37:19.081Z,29.14
2022-08-26T12:39:49.157Z,29.16
2022-08-26T12:42:19.109Z,29.12
2022-08-26T12:45:06.568Z,28.26
2022-08-26T12:47:44.319Z,28.58
2022-08-26T12:50:37.857Z,28.57
2022-08-26T12:53:10.667Z,28.85
2022-08-26T12:55:58.297Z,29.46
2022-08-26T12:58:31.765Z,28.55
2022-08-26T13:01:04.788Z,28.44
2022-08-26T13:03:34.677Z,29.17
2022-08-26T13:06:22.842Z,29.09
2022-08-26T13:09:01.278Z,29.74
2022-08-26T13:11:39.116Z,29.76
2022-08-26T13:14:24.799Z,28.17
2022-08-26T13:16:53.572Z,27.89
2022-08-26T13:19:29.466Z,27.73
2022-08-26T13:22:00.399Z,28.63
2022-08-26T13:24:34.660Z,29.75
2022-08-26T13:27:04.347Z,30.14
2022-08-26T13:29:31.141Z,30.00
2022-08-26T13:32:00.026Z,29.05
2022-08-26T13:34:28.045Z,29.52
2022-08-26T13:36:56.585Z,29.24
2022-08-26T13:39:27.778Z,29.87
2022-08-26T13:41:54.869Z,30.52
2022-08-26T13:44:22.131Z,30.74
2022-08-26T13:46:49.333Z,30.86
2022-08-26T13:49:19.220Z,30.82
2022-08-26T13:51:47.457Z,30.09
2022-08-26T13:54:17.557Z,30.30
2022-08-26T13:56:44.583Z,29.49
2022-08-26T13:59:11.446Z,29.49
2022-08-26T14:01:39.617Z,28.61
2022-08-26T14:04:08.062Z,27.70
2022-08-26T14:06:34.823Z,27.22
2022-08-26T14:09:01.621Z,26.53
2022-08-26T14:11:30.019Z,26.14
2022-08-26T14:14:11.651Z,25.91
2022-08-26T14:16:51.488Z,25.68
2022-08-26T14:19:31.402Z,25.45
2022-08-26T14:22:00.806Z,25.23
2022-08-26T14:24:28.840Z,25.09
2022-08-26T14:26:55.621Z,24.81
2022-08-26T14:29:22.374Z,24.69
2022-08-26T14:31:49.387Z,24.60
2022-08-26T14:34:21.677Z,24.48
2022-08-26T14:36:48.359Z,24.36
2022-08-26T14:39:17.901Z,24.30
2022-08-26T14:41:54.990Z,24.10
2022-08-26T14:44:29.764Z,24.03
2022-08-26T14:46:59.976Z,24.18
2022-08-26T14:49:27.952Z,24.18
2022-08-26T14:51:55.344Z,24.11
2022-08-26T14:54:22.168Z,24.11
2022-08-26T14:56:56.137Z,24.05
2022-08-26T14:59:35.167Z,23.94
2022-08-26T15:02:04.057Z,23.88
2022-08-26T15:04:30.841Z,23.54
2022-08-26T15:07:00.676Z,23.47
2022-08-26T15:09:32.535Z,23.26
2022-08-26T15:11:59.460Z,23.21
2022-08-26T15:14:30.918Z,22.98
2022-08-26T15:16:59.771Z,23.04
2022-08-26T15:19:28.236Z,22.97
2022-08-26T15:21:55.421Z,22.97
2022-08-26T15:24:25.870Z,22.86
2022-08-26T15:26:53.898Z,22.97
2022-08-26T15:29:24.042Z,22.90
2022-08-26T15:31:51.396Z,22.94
2022-08-26T15:34:20.657Z,22.89
2022-08-26T15:36:52.586Z,22.86
2022-08-26T15:39:20.377Z,22.91
2022-08-26T15:41:50.927Z,22.86
2022-08-26T15:44:18.479Z,22.84
2022-08-26T15:46:58.483Z,22.76
2022-08-26T15:49:27.481Z,22.78
2022-08-26T15:51:54.999Z,22.77
2022-08-26T15:54:23.821Z,22.79
2022-08-26T15:56:52.976Z,22.83
2022-08-26T15:59:24.633Z,22.84
2022-08-26T16:01:52.604Z,22.91
2022-08-26T16:04:20.121Z,23.02
2022-08-26T16:06:51.996Z,23.10
2022-08-26T16:09:27.008Z,23.13
2022-08-26T16:11:56.166Z,23.22
2022-08-26T16:14:24.718Z,23.28
2022-08-26T16:16:51.560Z,23.38
2022-08-26T16:19:18.619Z,23.52
2022-08-26T16:21:50.203Z,23.65
2022-08-26T16:24:29.786Z,23.69
2022-08-26T16:26:57.396Z,23.76
2022-08-26T16:29:24.509Z,23.82
2022-08-26T16:31:53.442Z,23.68
2022-08-26T16:34:21.903Z,23.45
2022-08-26T16:36:48.811Z,23.45
2022-08-26T16:39:17.619Z,23.38
2022-08-26T16:41:45.910Z,23.33
2022-08-26T16:44:12.731Z,22.84
2022-08-26T16:46:42.001Z,22.65
2022-08-26T16:49:08.845Z,22.80
2022-08-26T16:51:37.968Z,22.86
2022-08-26T16:54:08.450Z,22.88
2022-08-26T16:56:36.687Z,22.84
2022-08-26T16:59:11.513Z,22.90
2022-08-26T17:01:38.534Z,22.86
2022-08-26T17:04:05.356Z,22.86
2022-08-26T17:06:32.145Z,22.82
2022-08-26T17:08:58.779Z,22.82
2022-08-26T17:11:25.499Z,22.78
2022-08-26T17:13:54.094Z,22.66
2022-08-26T17:16:26.460Z,22.61
2022-08-26T17:18:56.998Z,22.59
2022-08-26T17:21:25.172Z,22.57
2022-08-26T17:23:52.916Z,22.57
2022-08-26T17:26:23.209Z,22.53
2022-08-26T17:28:51.095Z,22.47
2022-08-26T17:31:33.197Z,22.39
2022-08-26T17:33:59.906Z,22.35
2022-08-26T17:36:27.803Z,22.33
2022-08-26T17:38:57.904Z,22.30
2022-08-26T17:41:26.133Z,22.19
2022-08-26T17:43:52.967Z,22.11
2022-08-26T17:46:19.701Z,22.05
2022-08-26T17:48:47.763Z,21.98
2022-08-26T17:51:19.466Z,21.96
2022-08-26T17:53:47.957Z,21.91
2022-08-26T17:56:20.650Z,21.87
2022-08-26T17:58:51.958Z,21.87
2022-08-26T18:01:26.258Z,21.86
2022-08-26T18:04:00.162Z,21.86
2022-08-26T18:06:30.228Z,21.82
2022-08-26T18:08:58.121Z,21.81
2022-08-26T18:11:24.830Z,21.75
2022-08-26T18:13:54.362Z,21.72
2022-08-26T18:16:21.748Z,21.68
2022-08-26T18:18:53.268Z,21.60
2022-08-26T18:21:26.804Z,21.51
2022-08-26T18:23:55.311Z,21.53
2022-08-26T18:26:30.140Z,21.49
2022-08-26T18:28:58.018Z,21.48
2022-08-26T18:31:33.925Z,21.36
2022-08-26T18:34:02.992Z,21.36
2022-08-26T18:36:37.082Z,21.34
2022-08-26T18:39:06.888Z,21.30
2022-08-26T18:41:43.793Z,21.27
2022-08-26T18:44:13.773Z,21.20
2022-08-26T18:46:43.276Z,21.21
2022-08-26T18:49:15.221Z,21.20
2022-08-26T18:51:43.985Z,21.17
2022-08-26T18:54:11.787Z,21.14
2022-08-26T18:56:40.713Z,21.14
2022-08-26T18:59:09.547Z,21.08
2022-08-26T19:01:40.448Z,21.05
2022-08-26T19:04:14.141Z,21.02
2022-08-26T19:06:49.017Z,20.99
2022-08-26T19:09:19.008Z,20.87
2022-08-26T19:12:02.506Z,20.82
2022-08-26T19:14:32.809Z,20.82
2022-08-26T19:17:01.407Z,20.79
2022-08-26T19:19:31.981Z,20.74
2022-08-26T19:21:58.900Z,20.72
2022-08-26T19:24:31.655Z,20.74
2022-08-26T19:27:02.298Z,20.64
2022-08-26T19:29:36.768Z,20.64
2022-08-26T19:32:05.268Z,20.65
2022-08-26T19:34:32.432Z,20.64
2022-08-26T19:36:59.253Z,20.67
2022-08-26T19:39:32.159Z,20.67
2022-08-26T19:42:00.285Z,20.63
2022-08-26T19:44:48.558Z,20.59
2022-08-26T19:47:24.419Z,20.59
2022-08-26T19:49:56.461Z,20.58
2022-08-26T19:52:32.973Z,20.55
2022-08-26T19:55:02.509Z,20.49
2022-08-26T19:57:33.309Z,20.48
2022-08-26T20:00:01.074Z,20.46
2022-08-26T20:02:34.068Z,20.44
2022-08-26T20:05:00.826Z,20.41
2022-08-26T20:07:33.292Z,20.38
2022-08-26T20:10:00.969Z,20.33
2022-08-26T20:12:31.896Z,20.30
2022-08-26T20:14:58.732Z,20.28
2022-08-26T20:17:25.932Z,20.28
2022-08-26T20:20:14.655Z,20.28
2022-08-26T20:22:58.756Z,20.35
2022-08-26T20:25:35.744Z,20.39
2022-08-26T20:28:02.970Z,20.47
2022-08-26T20:30:30.051Z,20.55
2022-08-26T20:32:57.362Z,20.61
2022-08-26T20:35:27.353Z,20.66
2022-08-26T20:37:54.207Z,20.67
2022-08-26T20:40:22.576Z,20.69
2022-08-26T20:42:49.581Z,20.70
2022-08-26T20:45:30.830Z,20.71
2022-08-26T20:47:57.997Z,20.72
2022-08-26T20:50:24.831Z,20.71
2022-08-26T20:52:53.670Z,20.72
2022-08-26T20:55:21.418Z,20.73
2022-08-26T20:57:51.979Z,20.71
2022-08-26T21:00:39.399Z,20.70
2022-08-26T21:03:06.142Z,20.70
2022-08-26T21:05:39.183Z,20.72
2022-08-26T21:08:05.888Z,20.69
2022-08-26T21:10:32.885Z,20.70
2022-08-26T21:13:00.368Z,20.71
2022-08-26T21:15:27.631Z,20.71
2022-08-26T21:17:54.346Z,20.72
2022-08-26T21:20:32.736Z,20.71
2022-08-26T21:22:59.764Z,20.71
2022-08-26T21:25:26.964Z,20.67
2022-08-26T21:27:54.090Z,20.63
2022-08-26T21:30:28.544Z,20.62
2022-08-26T21:32:55.299Z,20.60
2022-08-26T21:35:29.570Z,20.60
2022-08-26T21:37:56.517Z,20.63
2022-08-26T21:40:29.692Z,20.62
2022-08-26T21:42:56.611Z,20.62
2022-08-26T21:45:32.120Z,20.65
2022-08-26T21:47:58.860Z,20.64
2022-08-26T21:50:25.738Z,20.64
2022-08-26T21:52:52.950Z,20.63
2022-08-26T21:55:25.183Z,20.63
2022-08-26T21:57:52.254Z,20.63
2022-08-26T22:00:19.634Z,20.64
2022-08-26T22:02:47.977Z,20.67
2022-08-26T22:05:15.971Z,20.69
2022-08-26T22:07:42.735Z,20.66
2022-08-26T22:10:09.746Z,20.70
2022-08-26T22:12:36.446Z,20.70
2022-08-26T22:15:03.848Z,20.70
2022-08-26T22:17:30.663Z,20.71
2022-08-26T22:19:57.542Z,20.70
2022-08-26T22:22:26.222Z,20.71
2022-08-26T22:24:55.427Z,20.68
2022-08-26T22:27:23.054Z,20.71
2022-08-26T22:29:50.622Z,20.73
2022-08-26T22:32:18.561Z,20.72
2022-08-26T22:34:45.705Z,20.75
2022-08-26T22:37:12.455Z,20.76
2022-08-26T22:39:39.206Z,20.77
2022-08-26T22:42:07.094Z,20.76
2022-08-26T22:44:36.437Z,20.77
2022-08-26T22:47:03.446Z,20.77
2022-08-26T22:49:30.226Z,20.77
2022-08-26T22:51:56.980Z,20.78
2022-08-26T22:54:23.698Z,20.77
2022-08-26T22:56:50.480Z,20.77
2022-08-26T22:59:17.885Z,20.75
2022-08-26T23:01:46.361Z,20.73
2022-08-26T23:04:14.107Z,20.73
2022-08-26T23:06:47.625Z,20.74
2022-08-26T23:09:17.794Z,20.77
2022-08-26T23:11:47.762Z,20.76
2022-08-26T23:14:16.895Z,20.76
2022-08-26T23:16:44.376Z,20.75
2022-08-26T23:19:14.847Z,20.74
2022-08-26T23:21:42.855Z,20.74
2022-08-26T23:24:10.970Z,20.73
2022-08-26T23:26:41.031Z,20.73
2022-08-26T23:29:12.781Z,20.75
2022-08-26T23:31:42.322Z,20.75
2022-08-26T23:34:28.849Z,20.78
2022-08-26T23:36:56.935Z,20.81
2022-08-26T23:39:25.462Z,20.79
2022-08-26T23:41:52.451Z,20.77
2022-08-26T23:44:20.642Z,20.78
2022-08-26T23:46:47.518Z,20.77
2022-08-26T23:49:14.246Z,20.76
2022-08-26T23:51:59.468Z,20.78
2022-08-26T23:54:26.387Z,20.76
2022-08-26T23:56:53.299Z,20.77
2022-08-26T23:59:20.601Z,20.74
